sensor_id;sensor_type;location;lat;lon;timestamp;temperature;humidity
9371;DHT22;4725;48.384;8.984;2023-08-31T00:00:08;12.00;99.90
9371;DHT22;4725;48.384;8.984;2023-08-31T00:02:35;12.10;99.90
9371;DHT22;4725;48.384;8.984;2023-08-31T00:05:04;12.10;99.90
9371;DHT22;4725;48.384;8.984;2023-08-31T00:07:31;12.10;99.90
9371;DHT22;4725;48.384;8.984;2023-08-31T00:09:58;12.00;99.90
9371;DHT22;4725;48.384;8.984;2023-08-31T00:12:25;12.10;99.90
9371;DHT22;4725;48.384;8.984;2023-08-31T00:14:52;12.00;99.90
9371;DHT22;4725;48.384;8.984;2023-08-31T00:17:19;11.90;99.90
9371;DHT22;4725;48.384;8.984;2023-08-31T00:19:45;11.90;99.90
9371;DHT22;4725;48.384;8.984;2023-08-31T00:22:14;11.90;99.90
9371;DHT22;4725;48.384;8.984;2023-08-31T00:24:41;11.90;99.90
9371;DHT22;4725;48.384;8.984;2023-08-31T00:27:08;11.90;99.90
9371;DHT22;4725;48.384;8.984;2023-08-31T00:29:35;11.90;99.90
9371;DHT22;4725;48.384;8.984;2023-08-31T00:32:04;11.80;99.90
9371;DHT22;4725;48.384;8.984;2023-08-31T00:34:31;11.80;99.90
9371;DHT22;4725;48.384;8.984;2023-08-31T00:36:58;11.80;99.90
9371;DHT22;4725;48.384;8.984;2023-08-31T00:39:26;11.80;99.90
9371;DHT22;4725;48.384;8.984;2023-08-31T00:41:53;11.80;99.90
9371;DHT22;4725;48.384;8.984;2023-08-31T00:44:20;11.80;99.90
9371;DHT22;4725;48.384;8.984;2023-08-31T00:46:48;11.80;99.90
9371;DHT22;4725;48.384;8.984;2023-08-31T00:49:14;11.70;99.90
9371;DHT22;4725;48.384;8.984;2023-08-31T00:51:43;11.80;99.90
9371;DHT22;4725;48.384;8.984;2023-08-31T00:54:14;11.70;99.90
9371;DHT22;4725;48.384;8.984;2023-08-31T00:56:43;11.80;99.90
9371;DHT22;4725;48.384;8.984;2023-08-31T00:59:10;11.70;99.90
9371;DHT22;4725;48.384;8.984;2023-08-31T01:01:40;11.80;99.90
9371;DHT22;4725;48.384;8.984;2023-08-31T01:04:18;11.80;99.90
9371;DHT22;4725;48.384;8.984;2023-08-31T01:06:53;11.80;99.90
9371;DHT22;4725;48.384;8.984;2023-08-31T01:09:30;11.80;99.90
9371;DHT22;4725;48.384;8.984;2023-08-31T01:12:03;11.70;99.90
9371;DHT22;4725;48.384;8.984;2023-08-31T01:14:33;11.80;99.90
9371;DHT22;4725;48.384;8.984;2023-08-31T01:17:02;11.70;99.90
9371;DHT22;4725;48.384;8.984;2023-08-31T01:19:40;11.80;99.90
9371;DHT22;4725;48.384;8.984;2023-08-31T01:22:12;10.50;99.90
9371;DHT22;4725;48.384;8.984;2023-08-31T01:24:41;11.70;99.90
9371;DHT22;4725;48.384;8.984;2023-08-31T01:27:09;11.80;99.90
9371;DHT22;4725;48.384;8.984;2023-08-31T01:29:36;11.80;99.90
9371;DHT22;4725;48.384;8.984;2023-08-31T01:32:06;11.80;99.90
9371;DHT22;4725;48.384;8.984;2023-08-31T01:34:33;11.80;99.90
9371;DHT22;4725;48.384;8.984;2023-08-31T01:37:05;11.80;99.90
9371;DHT22;4725;48.384;8.984;2023-08-31T01:39:39;11.70;99.90
9371;DHT22;4725;48.384;8.984;2023-08-31T01:42:12;11.00;99.90
9371;DHT22;4725;48.384;8.984;2023-08-31T01:44:42;11.60;99.90
9371;DHT22;4725;48.384;8.984;2023-08-31T01:47:10;11.60;99.90
9371;DHT22;4725;48.384;8.984;2023-08-31T01:49:39;11.60;99.90
9371;DHT22;4725;48.384;8.984;2023-08-31T01:52:06;11.70;99.90
9371;DHT22;4725;48.384;8.984;2023-08-31T01:54:34;11.70;99.90
9371;DHT22;4725;48.384;8.984;2023-08-31T01:57:03;11.70;99.90
9371;DHT22;4725;48.384;8.984;2023-08-31T01:59:33;11.70;99.90
9371;DHT22;4725;48.384;8.984;2023-08-31T02:01:59;11.60;99.90
9371;DHT22;4725;48.384;8.984;2023-08-31T02:04:26;11.60;99.90
9371;DHT22;4725;48.384;8.984;2023-08-31T02:06:53;11.60;99.90
9371;DHT22;4725;48.384;8.984;2023-08-31T02:09:20;11.60;99.90
9371;DHT22;4725;48.384;8.984;2023-08-31T02:11:47;11.50;99.90
9371;DHT22;4725;48.384;8.984;2023-08-31T02:14:14;11.50;99.90
9371;DHT22;4725;48.384;8.984;2023-08-31T02:16:42;11.50;99.90
9371;DHT22;4725;48.384;8.984;2023-08-31T02:19:09;11.40;99.90
9371;DHT22;4725;48.384;8.984;2023-08-31T02:21:36;11.20;99.90
9371;DHT22;4725;48.384;8.984;2023-08-31T02:24:03;11.20;99.90
9371;DHT22;4725;48.384;8.984;2023-08-31T02:26:30;11.10;99.90
9371;DHT22;4725;48.384;8.984;2023-08-31T02:28:57;11.00;99.90
9371;DHT22;4725;48.384;8.984;2023-08-31T02:31:24;11.00;99.90
9371;DHT22;4725;48.384;8.984;2023-08-31T02:33:52;11.00;99.90
9371;DHT22;4725;48.384;8.984;2023-08-31T02:36:19;11.10;99.90
9371;DHT22;4725;48.384;8.984;2023-08-31T02:38:47;11.10;99.90
9371;DHT22;4725;48.384;8.984;2023-08-31T02:41:15;11.10;99.90
9371;DHT22;4725;48.384;8.984;2023-08-31T02:43:42;11.10;99.90
9371;DHT22;4725;48.384;8.984;2023-08-31T02:46:09;11.10;99.90
9371;DHT22;4725;48.384;8.984;2023-08-31T02:48:36;11.10;99.90
9371;DHT22;4725;48.384;8.984;2023-08-31T02:51:04;11.10;99.90
9371;DHT22;4725;48.384;8.984;2023-08-31T02:53:31;11.10;99.90
9371;DHT22;4725;48.384;8.984;2023-08-31T02:55:58;11.20;99.90
9371;DHT22;4725;48.384;8.984;2023-08-31T02:58:25;11.20;99.90
9371;DHT22;4725;48.384;8.984;2023-08-31T03:00:51;11.20;99.90
9371;DHT22;4725;48.384;8.984;2023-08-31T03:03:19;11.20;99.90
9371;DHT22;4725;48.384;8.984;2023-08-31T03:05:46;11.30;99.90
9371;DHT22;4725;48.384;8.984;2023-08-31T03:08:14;11.30;99.90
9371;DHT22;4725;48.384;8.984;2023-08-31T03:10:41;11.30;99.90
9371;DHT22;4725;48.384;8.984;2023-08-31T03:13:08;11.20;99.90
9371;DHT22;4725;48.384;8.984;2023-08-31T03:15:34;11.20;99.90
9371;DHT22;4725;48.384;8.984;2023-08-31T03:18:01;11.20;99.90
9371;DHT22;4725;48.384;8.984;2023-08-31T03:20:28;11.10;99.90
9371;DHT22;4725;48.384;8.984;2023-08-31T03:22:55;11.20;99.90
9371;DHT22;4725;48.384;8.984;2023-08-31T03:25:23;11.20;99.90
9371;DHT22;4725;48.384;8.984;2023-08-31T03:27:50;11.20;99.90
9371;DHT22;4725;48.384;8.984;2023-08-31T03:30:17;11.20;99.90
9371;DHT22;4725;48.384;8.984;2023-08-31T03:32:44;11.20;99.90
9371;DHT22;4725;48.384;8.984;2023-08-31T03:35:11;11.20;99.90
9371;DHT22;4725;48.384;8.984;2023-08-31T03:37:38;11.30;99.90
9371;DHT22;4725;48.384;8.984;2023-08-31T03:40:06;11.30;99.90
9371;DHT22;4725;48.384;8.984;2023-08-31T03:42:34;11.20;99.90
9371;DHT22;4725;48.384;8.984;2023-08-31T03:45:01;11.20;99.90
9371;DHT22;4725;48.384;8.984;2023-08-31T03:47:29;11.30;99.90
9371;DHT22;4725;48.384;8.984;2023-08-31T03:49:56;11.20;99.90
9371;DHT22;4725;48.384;8.984;2023-08-31T03:52:23;11.20;99.90
9371;DHT22;4725;48.384;8.984;2023-08-31T03:54:51;11.20;99.90
9371;DHT22;4725;48.384;8.984;2023-08-31T03:57:18;11.30;99.90
9371;DHT22;4725;48.384;8.984;2023-08-31T03:59:47;11.30;99.90
9371;DHT22;4725;48.384;8.984;2023-08-31T04:02:14;11.40;99.90
9371;DHT22;4725;48.384;8.984;2023-08-31T04:04:41;11.30;99.90
9371;DHT22;4725;48.384;8.984;2023-08-31T04:07:07;11.40;99.90
9371;DHT22;4725;48.384;8.984;2023-08-31T04:09:34;11.40;99.90
9371;DHT22;4725;48.384;8.984;2023-08-31T04:12:01;11.40;99.90
9371;DHT22;4725;48.384;8.984;2023-08-31T04:14:28;11.40;99.90
9371;DHT22;4725;48.384;8.984;2023-08-31T04:16:56;11.40;99.90
9371;DHT22;4725;48.384;8.984;2023-08-31T04:19:23;11.40;99.90
9371;DHT22;4725;48.384;8.984;2023-08-31T04:21:50;11.50;99.90
9371;DHT22;4725;48.384;8.984;2023-08-31T04:24:17;11.50;99.90
9371;DHT22;4725;48.384;8.984;2023-08-31T04:26:44;11.60;99.90
9371;DHT22;4725;48.384;8.984;2023-08-31T04:29:13;11.50;99.90
9371;DHT22;4725;48.384;8.984;2023-08-31T04:31:40;11.50;99.90
9371;DHT22;4725;48.384;8.984;2023-08-31T04:34:08;11.40;99.90
9371;DHT22;4725;48.384;8.984;2023-08-31T04:36:35;11.50;99.90
9371;DHT22;4725;48.384;8.984;2023-08-31T04:39:02;11.50;99.90
9371;DHT22;4725;48.384;8.984;2023-08-31T04:43:57;11.40;99.90
9371;DHT22;4725;48.384;8.984;2023-08-31T04:46:24;11.50;99.90
9371;DHT22;4725;48.384;8.984;2023-08-31T04:48:51;11.50;99.90
9371;DHT22;4725;48.384;8.984;2023-08-31T04:53:57;11.40;99.90
9371;DHT22;4725;48.384;8.984;2023-08-31T04:56:24;11.50;99.90
9371;DHT22;4725;48.384;8.984;2023-08-31T04:58:51;11.50;99.90
9371;DHT22;4725;48.384;8.984;2023-08-31T05:01:18;11.50;99.90
9371;DHT22;4725;48.384;8.984;2023-08-31T05:03:45;11.50;99.90
9371;DHT22;4725;48.384;8.984;2023-08-31T05:06:12;11.50;99.90
9371;DHT22;4725;48.384;8.984;2023-08-31T05:08:40;11.50;99.90
9371;DHT22;4725;48.384;8.984;2023-08-31T05:11:07;11.50;99.90
9371;DHT22;4725;48.384;8.984;2023-08-31T05:13:34;11.50;99.90
9371;DHT22;4725;48.384;8.984;2023-08-31T05:16:01;11.60;99.90
9371;DHT22;4725;48.384;8.984;2023-08-31T05:18:28;11.60;99.90
9371;DHT22;4725;48.384;8.984;2023-08-31T05:20:55;11.60;99.90
9371;DHT22;4725;48.384;8.984;2023-08-31T05:23:22;11.60;99.90
9371;DHT22;4725;48.384;8.984;2023-08-31T05:25:50;11.60;99.90
9371;DHT22;4725;48.384;8.984;2023-08-31T05:28:17;11.50;99.90
9371;DHT22;4725;48.384;8.984;2023-08-31T05:30:48;11.60;99.90
9371;DHT22;4725;48.384;8.984;2023-08-31T05:33:16;11.50;99.90
9371;DHT22;4725;48.384;8.984;2023-08-31T05:35:43;11.50;99.90
9371;DHT22;4725;48.384;8.984;2023-08-31T05:38:10;11.50;99.90
9371;DHT22;4725;48.384;8.984;2023-08-31T05:40:37;11.50;99.90
9371;DHT22;4725;48.384;8.984;2023-08-31T05:43:05;11.60;99.90
9371;DHT22;4725;48.384;8.984;2023-08-31T05:45:32;11.80;99.90
9371;DHT22;4725;48.384;8.984;2023-08-31T05:47:59;11.90;99.90
9371;DHT22;4725;48.384;8.984;2023-08-31T05:50:26;11.90;99.90
9371;DHT22;4725;48.384;8.984;2023-08-31T05:52:53;12.00;99.90
9371;DHT22;4725;48.384;8.984;2023-08-31T05:55:20;12.00;99.90
9371;DHT22;4725;48.384;8.984;2023-08-31T05:57:48;12.00;99.90
9371;DHT22;4725;48.384;8.984;2023-08-31T06:00:17;12.10;99.90
9371;DHT22;4725;48.384;8.984;2023-08-31T06:02:44;12.20;99.90
9371;DHT22;4725;48.384;8.984;2023-08-31T06:05:11;12.20;99.90
9371;DHT22;4725;48.384;8.984;2023-08-31T06:07:42;12.20;99.90
9371;DHT22;4725;48.384;8.984;2023-08-31T06:10:09;12.30;99.90
9371;DHT22;4725;48.384;8.984;2023-08-31T06:12:36;12.50;99.90
9371;DHT22;4725;48.384;8.984;2023-08-31T06:15:04;12.50;99.90
9371;DHT22;4725;48.384;8.984;2023-08-31T06:17:32;12.60;99.90
9371;DHT22;4725;48.384;8.984;2023-08-31T06:20:00;12.60;99.90
9371;DHT22;4725;48.384;8.984;2023-08-31T06:22:30;12.60;99.90
9371;DHT22;4725;48.384;8.984;2023-08-31T06:24:57;12.70;99.90
9371;DHT22;4725;48.384;8.984;2023-08-31T06:27:24;12.70;99.90
9371;DHT22;4725;48.384;8.984;2023-08-31T06:29:51;12.70;99.90
9371;DHT22;4725;48.384;8.984;2023-08-31T06:32:18;12.80;99.90
9371;DHT22;4725;48.384;8.984;2023-08-31T06:34:47;12.80;99.90
9371;DHT22;4725;48.384;8.984;2023-08-31T06:37:13;12.90;99.90
9371;DHT22;4725;48.384;8.984;2023-08-31T06:39:40;13.00;99.90
9371;DHT22;4725;48.384;8.984;2023-08-31T06:42:07;12.90;99.90
9371;DHT22;4725;48.384;8.984;2023-08-31T06:44:34;12.90;99.90
9371;DHT22;4725;48.384;8.984;2023-08-31T06:47:01;13.00;99.90
9371;DHT22;4725;48.384;8.984;2023-08-31T06:49:28;13.00;99.90
9371;DHT22;4725;48.384;8.984;2023-08-31T06:51:59;13.20;99.90
9371;DHT22;4725;48.384;8.984;2023-08-31T06:54:28;13.20;99.90
9371;DHT22;4725;48.384;8.984;2023-08-31T06:56:54;13.10;99.90
9371;DHT22;4725;48.384;8.984;2023-08-31T06:59:21;13.10;99.90
9371;DHT22;4725;48.384;8.984;2023-08-31T07:01:48;13.10;99.90
9371;DHT22;4725;48.384;8.984;2023-08-31T07:04:15;13.20;99.90
9371;DHT22;4725;48.384;8.984;2023-08-31T07:06:42;13.30;99.90
9371;DHT22;4725;48.384;8.984;2023-08-31T07:09:10;13.30;99.90
9371;DHT22;4725;48.384;8.984;2023-08-31T07:11:37;13.40;99.90
9371;DHT22;4725;48.384;8.984;2023-08-31T07:14:04;13.30;99.90
9371;DHT22;4725;48.384;8.984;2023-08-31T07:16:31;13.30;99.90
9371;DHT22;4725;48.384;8.984;2023-08-31T07:18:58;13.20;99.90
9371;DHT22;4725;48.384;8.984;2023-08-31T07:21:24;13.20;99.90
9371;DHT22;4725;48.384;8.984;2023-08-31T07:23:52;13.10;99.90
9371;DHT22;4725;48.384;8.984;2023-08-31T07:26:21;13.10;99.90
9371;DHT22;4725;48.384;8.984;2023-08-31T07:28:48;13.30;99.90
9371;DHT22;4725;48.384;8.984;2023-08-31T07:31:15;13.60;99.90
9371;DHT22;4725;48.384;8.984;2023-08-31T07:33:42;13.90;99.90
9371;DHT22;4725;48.384;8.984;2023-08-31T07:36:09;13.90;99.90
9371;DHT22;4725;48.384;8.984;2023-08-31T07:38:35;13.90;99.90
9371;DHT22;4725;48.384;8.984;2023-08-31T07:41:02;13.80;99.90
9371;DHT22;4725;48.384;8.984;2023-08-31T07:45:58;14.00;99.90
9371;DHT22;4725;48.384;8.984;2023-08-31T07:48:25;14.00;99.90
9371;DHT22;4725;48.384;8.984;2023-08-31T07:50:52;13.90;99.90
9371;DHT22;4725;48.384;8.984;2023-08-31T07:53:18;13.80;99.90
9371;DHT22;4725;48.384;8.984;2023-08-31T07:55:52;13.90;99.90
9371;DHT22;4725;48.384;8.984;2023-08-31T07:58:20;13.90;99.90
9371;DHT22;4725;48.384;8.984;2023-08-31T08:00:51;13.90;99.90
9371;DHT22;4725;48.384;8.984;2023-08-31T08:03:18;14.00;99.90
9371;DHT22;4725;48.384;8.984;2023-08-31T08:05:45;14.00;99.90
9371;DHT22;4725;48.384;8.984;2023-08-31T08:10:39;14.10;99.90
9371;DHT22;4725;48.384;8.984;2023-08-31T08:13:06;14.20;99.90
9371;DHT22;4725;48.384;8.984;2023-08-31T08:15:33;14.20;99.90
9371;DHT22;4725;48.384;8.984;2023-08-31T08:25:24;14.70;99.90
9371;DHT22;4725;48.384;8.984;2023-08-31T08:27:51;14.70;99.90
9371;DHT22;4725;48.384;8.984;2023-08-31T08:30:18;15.00;99.90
9371;DHT22;4725;48.384;8.984;2023-08-31T08:32:45;15.10;99.90
9371;DHT22;4725;48.384;8.984;2023-08-31T08:35:13;15.10;99.90
9371;DHT22;4725;48.384;8.984;2023-08-31T08:37:40;15.20;99.90
9371;DHT22;4725;48.384;8.984;2023-08-31T08:40:09;15.40;99.90
9371;DHT22;4725;48.384;8.984;2023-08-31T08:42:42;15.60;99.90
9371;DHT22;4725;48.384;8.984;2023-08-31T08:45:14;15.70;99.90
9371;DHT22;4725;48.384;8.984;2023-08-31T08:47:43;15.80;99.90
9371;DHT22;4725;48.384;8.984;2023-08-31T08:50:10;15.90;99.90
9371;DHT22;4725;48.384;8.984;2023-08-31T08:52:39;15.80;99.90
9371;DHT22;4725;48.384;8.984;2023-08-31T08:55:08;15.80;99.90
9371;DHT22;4725;48.384;8.984;2023-08-31T08:57:35;15.70;99.90
9371;DHT22;4725;48.384;8.984;2023-08-31T09:00:03;16.00;99.90
9371;DHT22;4725;48.384;8.984;2023-08-31T09:02:30;16.00;99.90
9371;DHT22;4725;48.384;8.984;2023-08-31T09:04:57;16.10;99.90
9371;DHT22;4725;48.384;8.984;2023-08-31T09:07:24;16.30;99.90
9371;DHT22;4725;48.384;8.984;2023-08-31T09:09:54;16.20;99.90
9371;DHT22;4725;48.384;8.984;2023-08-31T09:12:22;16.30;99.90
9371;DHT22;4725;48.384;8.984;2023-08-31T09:14:57;16.40;99.90
9371;DHT22;4725;48.384;8.984;2023-08-31T09:17:25;16.50;99.90
9371;DHT22;4725;48.384;8.984;2023-08-31T09:20:01;16.50;99.90
9371;DHT22;4725;48.384;8.984;2023-08-31T09:22:29;16.70;99.90
9371;DHT22;4725;48.384;8.984;2023-08-31T09:24:57;16.70;99.90
9371;DHT22;4725;48.384;8.984;2023-08-31T09:27:24;16.80;99.90
9371;DHT22;4725;48.384;8.984;2023-08-31T09:29:54;17.10;99.90
9371;DHT22;4725;48.384;8.984;2023-08-31T09:32:21;17.00;99.90
9371;DHT22;4725;48.384;8.984;2023-08-31T09:34:48;17.10;99.90
9371;DHT22;4725;48.384;8.984;2023-08-31T09:37:16;17.20;99.90
9371;DHT22;4725;48.384;8.984;2023-08-31T09:39:42;17.40;99.90
9371;DHT22;4725;48.384;8.984;2023-08-31T09:42:11;17.40;99.90
9371;DHT22;4725;48.384;8.984;2023-08-31T09:44:40;17.50;99.90
9371;DHT22;4725;48.384;8.984;2023-08-31T09:47:08;17.60;99.90
9371;DHT22;4725;48.384;8.984;2023-08-31T09:49:36;17.70;99.90
9371;DHT22;4725;48.384;8.984;2023-08-31T09:52:05;17.80;99.90
9371;DHT22;4725;48.384;8.984;2023-08-31T09:54:35;17.90;99.90
9371;DHT22;4725;48.384;8.984;2023-08-31T09:57:02;18.40;99.90
9371;DHT22;4725;48.384;8.984;2023-08-31T09:59:31;18.40;99.90
9371;DHT22;4725;48.384;8.984;2023-08-31T10:02:00;19.30;99.90
9371;DHT22;4725;48.384;8.984;2023-08-31T10:04:29;19.50;99.90
9371;DHT22;4725;48.384;8.984;2023-08-31T10:06:58;19.80;99.90
9371;DHT22;4725;48.384;8.984;2023-08-31T10:09:26;19.80;99.90
9371;DHT22;4725;48.384;8.984;2023-08-31T10:11:54;19.80;99.90
9371;DHT22;4725;48.384;8.984;2023-08-31T10:14:22;19.80;99.90
9371;DHT22;4725;48.384;8.984;2023-08-31T10:16:50;20.00;98.80
9371;DHT22;4725;48.384;8.984;2023-08-31T10:19:18;19.20;99.50
9371;DHT22;4725;48.384;8.984;2023-08-31T10:21:45;18.60;99.90
9371;DHT22;4725;48.384;8.984;2023-08-31T10:24:12;18.60;99.90
9371;DHT22;4725;48.384;8.984;2023-08-31T10:26:39;18.80;99.90
9371;DHT22;4725;48.384;8.984;2023-08-31T10:29:06;18.80;99.90
9371;DHT22;4725;48.384;8.984;2023-08-31T10:31:53;19.70;99.30
9371;DHT22;4725;48.384;8.984;2023-08-31T10:34:34;19.70;99.70
9371;DHT22;4725;48.384;8.984;2023-08-31T10:37:02;19.60;99.90
9371;DHT22;4725;48.384;8.984;2023-08-31T10:39:37;19.70;99.10
9371;DHT22;4725;48.384;8.984;2023-08-31T10:42:05;20.20;99.70
9371;DHT22;4725;48.384;8.984;2023-08-31T10:44:31;20.20;99.60
9371;DHT22;4725;48.384;8.984;2023-08-31T10:47:03;20.70;99.10
9371;DHT22;4725;48.384;8.984;2023-08-31T10:49:30;21.20;98.70
9371;DHT22;4725;48.384;8.984;2023-08-31T10:52:15;21.40;97.00
9371;DHT22;4725;48.384;8.984;2023-08-31T10:54:42;21.10;98.20
9371;DHT22;4725;48.384;8.984;2023-08-31T10:57:09;20.70;99.90
9371;DHT22;4725;48.384;8.984;2023-08-31T10:59:45;20.80;99.60
9371;DHT22;4725;48.384;8.984;2023-08-31T11:02:34;21.40;96.70
9371;DHT22;4725;48.384;8.984;2023-08-31T11:05:05;21.40;97.00
9371;DHT22;4725;48.384;8.984;2023-08-31T11:07:33;21.80;95.70
9371;DHT22;4725;48.384;8.984;2023-08-31T11:10:12;21.30;97.90
9371;DHT22;4725;48.384;8.984;2023-08-31T11:12:41;21.20;97.40
9371;DHT22;4725;48.384;8.984;2023-08-31T11:15:11;20.60;96.00
9371;DHT22;4725;48.384;8.984;2023-08-31T11:17:40;20.40;98.40
9371;DHT22;4725;48.384;8.984;2023-08-31T11:20:08;20.90;98.50
9371;DHT22;4725;48.384;8.984;2023-08-31T11:22:38;22.20;95.70
9371;DHT22;4725;48.384;8.984;2023-08-31T11:25:07;22.60;94.60
9371;DHT22;4725;48.384;8.984;2023-08-31T11:27:34;22.10;95.80
9371;DHT22;4725;48.384;8.984;2023-08-31T11:30:01;21.90;96.20
9371;DHT22;4725;48.384;8.984;2023-08-31T11:32:28;21.20;97.10
9371;DHT22;4725;48.384;8.984;2023-08-31T11:34:56;20.60;97.70
9371;DHT22;4725;48.384;8.984;2023-08-31T11:37:23;20.70;96.50
9371;DHT22;4725;48.384;8.984;2023-08-31T11:39:53;20.90;97.00
9371;DHT22;4725;48.384;8.984;2023-08-31T11:42:21;20.90;97.80
9371;DHT22;4725;48.384;8.984;2023-08-31T11:44:50;21.30;96.20
9371;DHT22;4725;48.384;8.984;2023-08-31T11:47:20;21.30;95.90
9371;DHT22;4725;48.384;8.984;2023-08-31T11:49:47;21.60;96.70
9371;DHT22;4725;48.384;8.984;2023-08-31T11:52:16;20.60;97.30
9371;DHT22;4725;48.384;8.984;2023-08-31T11:54:43;20.40;96.80
9371;DHT22;4725;48.384;8.984;2023-08-31T11:57:11;20.10;96.70
9371;DHT22;4725;48.384;8.984;2023-08-31T11:59:39;20.10;98.30
9371;DHT22;4725;48.384;8.984;2023-08-31T12:02:06;21.40;95.30
9371;DHT22;4725;48.384;8.984;2023-08-31T12:04:33;21.50;96.20
9371;DHT22;4725;48.384;8.984;2023-08-31T12:07:08;21.60;95.90
9371;DHT22;4725;48.384;8.984;2023-08-31T12:09:36;21.50;96.20
9371;DHT22;4725;48.384;8.984;2023-08-31T12:12:04;22.60;94.20
9371;DHT22;4725;48.384;8.984;2023-08-31T12:14:31;22.80;95.30
9371;DHT22;4725;48.384;8.984;2023-08-31T12:17:02;25.80;95.50
9371;DHT22;4725;48.384;8.984;2023-08-31T12:19:29;23.90;96.50
9371;DHT22;4725;48.384;8.984;2023-08-31T12:21:57;22.90;94.90
9371;DHT22;4725;48.384;8.984;2023-08-31T12:24:24;22.70;95.50
9371;DHT22;4725;48.384;8.984;2023-08-31T12:26:53;22.80;94.30
9371;DHT22;4725;48.384;8.984;2023-08-31T12:29:20;22.80;94.60
9371;DHT22;4725;48.384;8.984;2023-08-31T12:31:47;23.10;95.10
9371;DHT22;4725;48.384;8.984;2023-08-31T12:34:15;23.10;94.60
9371;DHT22;4725;48.384;8.984;2023-08-31T12:36:42;22.50;95.30
9371;DHT22;4725;48.384;8.984;2023-08-31T12:39:09;22.10;94.90
9371;DHT22;4725;48.384;8.984;2023-08-31T12:41:37;22.00;96.50
9371;DHT22;4725;48.384;8.984;2023-08-31T12:44:06;21.70;94.90
9371;DHT22;4725;48.384;8.984;2023-08-31T12:46:33;21.70;95.30
9371;DHT22;4725;48.384;8.984;2023-08-31T12:49:01;21.90;94.80
9371;DHT22;4725;48.384;8.984;2023-08-31T12:51:29;22.30;95.00
9371;DHT22;4725;48.384;8.984;2023-08-31T12:53:56;23.00;95.70
9371;DHT22;4725;48.384;8.984;2023-08-31T12:56:23;23.90;94.50
9371;DHT22;4725;48.384;8.984;2023-08-31T12:58:51;24.70;93.10
9371;DHT22;4725;48.384;8.984;2023-08-31T13:01:21;24.50;92.70
9371;DHT22;4725;48.384;8.984;2023-08-31T13:03:48;24.50;93.60
9371;DHT22;4725;48.384;8.984;2023-08-31T13:06:15;23.70;94.10
9371;DHT22;4725;48.384;8.984;2023-08-31T13:08:42;23.20;93.80
9371;DHT22;4725;48.384;8.984;2023-08-31T13:11:10;22.70;94.40
9371;DHT22;4725;48.384;8.984;2023-08-31T13:13:38;21.90;93.70
9371;DHT22;4725;48.384;8.984;2023-08-31T13:16:05;21.70;95.90
9371;DHT22;4725;48.384;8.984;2023-08-31T13:18:33;21.70;97.00
9371;DHT22;4725;48.384;8.984;2023-08-31T13:21:00;21.40;95.60
9371;DHT22;4725;48.384;8.984;2023-08-31T13:23:28;21.30;95.30
9371;DHT22;4725;48.384;8.984;2023-08-31T13:25:55;21.30;95.90
9371;DHT22;4725;48.384;8.984;2023-08-31T13:28:22;21.30;96.10
9371;DHT22;4725;48.384;8.984;2023-08-31T13:30:49;22.20;96.90
9371;DHT22;4725;48.384;8.984;2023-08-31T13:33:17;23.00;95.00
9371;DHT22;4725;48.384;8.984;2023-08-31T13:35:47;23.10;96.30
9371;DHT22;4725;48.384;8.984;2023-08-31T13:38:14;23.80;95.50
9371;DHT22;4725;48.384;8.984;2023-08-31T13:40:40;23.90;93.40
9371;DHT22;4725;48.384;8.984;2023-08-31T13:43:07;23.00;93.10
9371;DHT22;4725;48.384;8.984;2023-08-31T13:45:34;22.40;94.80
9371;DHT22;4725;48.384;8.984;2023-08-31T13:48:01;21.60;95.60
9371;DHT22;4725;48.384;8.984;2023-08-31T13:50:29;21.20;95.90
9371;DHT22;4725;48.384;8.984;2023-08-31T13:52:58;20.90;97.70
9371;DHT22;4725;48.384;8.984;2023-08-31T13:55:25;21.00;97.80
9371;DHT22;4725;48.384;8.984;2023-08-31T13:57:52;20.80;98.00
9371;DHT22;4725;48.384;8.984;2023-08-31T14:00:19;20.40;99.20
9371;DHT22;4725;48.384;8.984;2023-08-31T14:02:46;20.20;98.10
9371;DHT22;4725;48.384;8.984;2023-08-31T14:05:13;20.10;98.30
9371;DHT22;4725;48.384;8.984;2023-08-31T14:07:41;20.50;98.30
9371;DHT22;4725;48.384;8.984;2023-08-31T14:10:10;20.70;98.80
9371;DHT22;4725;48.384;8.984;2023-08-31T14:12:37;21.30;98.30
9371;DHT22;4725;48.384;8.984;2023-08-31T14:15:05;21.40;98.40
9371;DHT22;4725;48.384;8.984;2023-08-31T14:17:32;21.40;98.50
9371;DHT22;4725;48.384;8.984;2023-08-31T14:19:59;21.00;97.70
9371;DHT22;4725;48.384;8.984;2023-08-31T14:22:31;21.20;99.10
9371;DHT22;4725;48.384;8.984;2023-08-31T14:24:58;21.30;98.40
9371;DHT22;4725;48.384;8.984;2023-08-31T14:27:26;21.30;99.20
9371;DHT22;4725;48.384;8.984;2023-08-31T14:29:56;21.70;98.90
9371;DHT22;4725;48.384;8.984;2023-08-31T14:32:22;23.00;98.10
9371;DHT22;4725;48.384;8.984;2023-08-31T14:34:49;23.50;97.00
9371;DHT22;4725;48.384;8.984;2023-08-31T14:37:16;24.20;95.40
9371;DHT22;4725;48.384;8.984;2023-08-31T14:39:43;24.80;96.00
9371;DHT22;4725;48.384;8.984;2023-08-31T14:42:10;24.10;94.90
9371;DHT22;4725;48.384;8.984;2023-08-31T14:44:38;23.80;95.60
9371;DHT22;4725;48.384;8.984;2023-08-31T14:47:05;22.70;97.20
9371;DHT22;4725;48.384;8.984;2023-08-31T14:49:33;21.90;98.90
9371;DHT22;4725;48.384;8.984;2023-08-31T14:52:00;21.30;96.70
9371;DHT22;4725;48.384;8.984;2023-08-31T14:54:30;21.30;97.30
9371;DHT22;4725;48.384;8.984;2023-08-31T14:56:57;21.10;96.60
9371;DHT22;4725;48.384;8.984;2023-08-31T14:59:25;20.70;97.80
9371;DHT22;4725;48.384;8.984;2023-08-31T15:01:54;20.50;98.00
9371;DHT22;4725;48.384;8.984;2023-08-31T15:04:21;20.50;98.50
9371;DHT22;4725;48.384;8.984;2023-08-31T15:06:47;20.50;98.10
9371;DHT22;4725;48.384;8.984;2023-08-31T15:09:14;20.10;99.40
9371;DHT22;4725;48.384;8.984;2023-08-31T15:11:41;19.80;99.80
9371;DHT22;4725;48.384;8.984;2023-08-31T15:14:10;19.70;99.90
9371;DHT22;4725;48.384;8.984;2023-08-31T15:16:37;19.70;99.90
9371;DHT22;4725;48.384;8.984;2023-08-31T15:19:06;19.70;99.90
9371;DHT22;4725;48.384;8.984;2023-08-31T15:21:33;19.70;99.90
9371;DHT22;4725;48.384;8.984;2023-08-31T15:24:00;19.60;99.90
9371;DHT22;4725;48.384;8.984;2023-08-31T15:26:28;19.30;99.90
9371;DHT22;4725;48.384;8.984;2023-08-31T15:28:54;19.00;99.90
9371;DHT22;4725;48.384;8.984;2023-08-31T15:31:21;19.10;99.90
9371;DHT22;4725;48.384;8.984;2023-08-31T15:33:49;19.30;99.90
9371;DHT22;4725;48.384;8.984;2023-08-31T15:36:17;19.40;99.90
9371;DHT22;4725;48.384;8.984;2023-08-31T15:38:44;19.40;99.90
9371;DHT22;4725;48.384;8.984;2023-08-31T15:41:13;19.50;99.90
9371;DHT22;4725;48.384;8.984;2023-08-31T15:43:40;19.40;99.90
9371;DHT22;4725;48.384;8.984;2023-08-31T15:46:08;19.40;99.90
9371;DHT22;4725;48.384;8.984;2023-08-31T15:48:35;19.50;99.90
9371;DHT22;4725;48.384;8.984;2023-08-31T15:51:02;19.60;99.90
9371;DHT22;4725;48.384;8.984;2023-08-31T15:53:31;19.70;99.90
9371;DHT22;4725;48.384;8.984;2023-08-31T15:55:57;19.70;99.90
9371;DHT22;4725;48.384;8.984;2023-08-31T15:58:24;19.70;99.90
9371;DHT22;4725;48.384;8.984;2023-08-31T16:00:52;19.40;99.90
9371;DHT22;4725;48.384;8.984;2023-08-31T16:03:26;19.20;99.90
9371;DHT22;4725;48.384;8.984;2023-08-31T16:05:56;19.30;99.90
9371;DHT22;4725;48.384;8.984;2023-08-31T16:08:23;19.20;99.90
9371;DHT22;4725;48.384;8.984;2023-08-31T16:10:51;19.00;99.90
9371;DHT22;4725;48.384;8.984;2023-08-31T16:13:18;18.90;99.90
9371;DHT22;4725;48.384;8.984;2023-08-31T16:15:45;18.90;99.90
9371;DHT22;4725;48.384;8.984;2023-08-31T16:18:13;18.90;99.90
9371;DHT22;4725;48.384;8.984;2023-08-31T16:20:41;18.80;99.90
9371;DHT22;4725;48.384;8.984;2023-08-31T16:23:08;18.50;99.90